Time;durP1;ratioP1;P1;durP2;ratioP2;P2;SDS_P1;SDS_P2;PMS_P1;PMS_P2;Temp;Humidity;BMP_temperature;BMP_pressure;BME280_temperature;BME280_humidity;BME280_pressure;Samples;Min_cycle;Max_cycle;Signal;HPM_P1;HPM_P2
2022/05/08 00:01:58;;;;;;;;;;;;;;;;;;5078764;28;19908;-81
2022/05/08 00:04:23;;;;;;;;;;;;;;;;;;5061186;28;20294;-81
2022/05/08 00:06:49;;;;;;;;;;;;;;;;;;5078524;28;19940;-81
2022/05/08 00:09:15;;;;;;;;;;;;;;;;;;5060564;28;19980;-81
2022/05/08 00:11:41;;;;;;;;;;;;;;;;;;5060287;28;19991;-82
2022/05/08 00:14:07;;;;;;;;;;;;;;;;;;5076888;28;19951;-81
2022/05/08 00:16:33;;;;;;;;;;;;;;;;;;5078157;28;19924;-82
2022/05/08 00:18:59;;;;;;;;;;;;;;;;;;5078839;28;19970;-81
2022/05/08 00:21:25;;;;;;;;;;;;;;;;;;5080225;28;19913;-81
2022/05/08 00:23:51;;;;;;;;;;;;;;;;;;5069449;28;19946;-82
2022/05/08 00:26:18;;;;;;;;;;;;;;;;;;5081361;28;19908;-81
2022/05/08 00:28:44;;;;;;;;;;;;;;;;;;5079107;28;19944;-81
2022/05/08 00:31:09;;;;;;;;;;;;;;;;;;5079719;28;19909;-81
2022/05/08 00:33:35;;;;;;;;;;;;;;;;;;5061696;28;19971;-81
2022/05/08 00:36:01;;;;;;;;;;;;;;;;;;5078909;28;19962;-81
2022/05/08 00:38:27;;;;;;;;;;;;;;;;;;5079215;28;19912;-82
2022/05/08 00:40:53;;;;;;;;;;;;;;;;;;5079710;28;19908;-82
2022/05/08 00:43:19;;;;;;;;;;;;;;;;;;5079892;28;19908;-82
2022/05/08 00:45:45;;;;;;;;;;;;;;;;;;5080595;28;19916;-81
2022/05/08 00:48:11;;;;;;;;;;;;;;;;;;5083251;28;19909;-82
2022/05/08 00:50:36;;;;;;;;;;;;;;;;;;5065720;28;19915;-82
2022/05/08 00:53:02;;;;;;;;;;;;;;;;;;5083069;28;20387;-82
2022/05/08 00:55:28;;;;;;;;;;;;;;;;;;5080560;28;19909;-81
2022/05/08 00:57:54;;;;;;;;;;;;;;;;;;5057486;28;20020;-81
2022/05/08 01:00:20;;;;;;;;;;;;;;;;;;5057097;28;19908;-81
2022/05/08 01:02:46;;;;;;;;;;;;;;;;;;5076304;28;19915;-82
2022/05/08 01:05:12;;;;;;;;;;;;;;;;;;5076507;28;19909;-82
2022/05/08 01:07:38;;;;;;;;;;;;;;;;;;5076769;28;19939;-82
2022/05/08 01:10:04;;;;;;;;;;;;;;;;;;5059029;28;19912;-81
2022/05/08 01:12:30;;;;;;;;;;;;;;;;;;5077631;28;20555;-81
2022/05/08 01:14:56;;;;;;;;;;;;;;;;;;5075899;28;19966;-81
2022/05/08 01:17:21;;;;;;;;;;;;;;;;;;5076028;28;19952;-81
2022/05/08 01:19:47;;;;;;;;;;;;;;;;;;5057880;28;20318;-81
2022/05/08 01:22:13;;;;;;;;;;;;;;;;;;5057873;28;19913;-81
2022/05/08 01:24:39;;;;;;;;;;;;;;;;;;5075421;28;19995;-81
2022/05/08 01:27:05;;;;;;;;;;;;;;;;;;5057812;28;19908;-81
2022/05/08 01:29:31;;;;;;;;;;;;;;;;;;5075238;28;19977;-81
2022/05/08 01:31:58;;;;;;;;;;;;;;;;;;5057763;28;19913;-81
2022/05/08 01:34:24;;;;;;;;;;;;;;;;;;5075760;28;19912;-81
2022/05/08 01:36:50;;;;;;;;;;;;;;;;;;5057270;28;20011;-82
2022/05/08 01:39:16;;;;;;;;;;;;;;;;;;5075198;28;19909;-81
2022/05/08 01:41:42;;;;;;;;;;;;;;;;;;5056708;28;20318;-81
2022/05/08 01:44:07;;;;;;;;;;;;;;;;;;5075003;28;19909;-81
2022/05/08 01:46:33;;;;;;;;;;;;;;;;;;5057109;28;19916;-80
2022/05/08 01:48:59;;;;;;;;;;;;;;;;;;5074482;28;19909;-80
2022/05/08 01:51:25;;;;;;;;;;;;;;;;;;5057389;28;19947;-80
2022/05/08 01:53:51;;;;;;;;;;;;;;;;;;5075116;28;19912;-80
2022/05/08 01:56:17;;;;;;;;;;;;;;;;;;5075024;28;19909;-80
2022/05/08 01:58:43;;;;;;;;;;;;;;;;;;5074641;28;19909;-81
2022/05/08 02:01:09;;;;;;;;;;;;;;;;;;5056769;28;19908;-80
2022/05/08 02:03:35;;;;;;;;;;;;;;;;;;5056286;28;20011;-80
2022/05/08 02:06:01;;;;;;;;;;;;;;;;;;5074664;28;20451;-80
2022/05/08 02:08:27;;;;;;;;;;;;;;;;;;5074374;28;19999;-81
2022/05/08 02:10:53;;;;;;;;;;;;;;;;;;5056367;28;19959;-81
2022/05/08 02:13:19;;;;;;;;;;;;;;;;;;5074618;28;20367;-80
2022/05/08 02:15:45;;;;;;;;;;;;;;;;;;5074856;28;19970;-81
2022/05/08 02:18:11;;;;;;;;;;;;;;;;;;5075404;28;19950;-82
2022/05/08 02:20:37;;;;;;;;;;;;;;;;;;5074702;28;19909;-79
2022/05/08 02:23:03;;;;;;;;;;;;;;;;;;5075334;28;19912;-82
2022/05/08 02:25:30;;;;;;;;;;;;;;;;;;5056380;28;19909;-81
2022/05/08 02:27:56;;;;;;;;;;;;;;;;;;5056230;28;20003;-80
2022/05/08 02:30:22;;;;;;;;;;;;;;;;;;5073971;28;19909;-81
2022/05/08 02:32:49;;;;;;;;;;;;;;;;;;5055902;28;20059;-81
2022/05/08 02:35:17;;;;;;;;;;;;;;;;;;5056246;28;19916;-82
2022/05/08 02:37:42;;;;;;;;;;;;;;;;;;5073598;28;19909;-82
2022/05/08 02:40:08;;;;;;;;;;;;;;;;;;5074300;28;19915;-81
2022/05/08 02:42:34;;;;;;;;;;;;;;;;;;5074942;28;20277;-81
2022/05/08 02:45:00;;;;;;;;;;;;;;;;;;5074860;28;19908;-82
2022/05/08 02:47:26;;;;;;;;;;;;;;;;;;5074688;28;20380;-81
2022/05/08 02:49:52;;;;;;;;;;;;;;;;;;5074188;28;19912;-82
2022/05/08 02:52:18;;;;;;;;;;;;;;;;;;5072939;28;19919;-81
2022/05/08 02:54:44;;;;;;;;;;;;;;;;;;5054299;28;20014;-79
2022/05/08 02:59:55;;;;;;;;;;;;;;;;;;5072055;28;19962;-79
2022/05/08 03:02:21;;;;;;;;;;;;;;;;;;5072251;28;19999;-79
2022/05/08 03:04:47;;;;;;;;;;;;;;;;;;5071823;28;20017;-79
2022/05/08 03:07:12;;;;;;;;;;;;;;;;;;5054035;28;20470;-79
2022/05/08 03:09:38;;;;;;;;;;;;;;;;;;5053599;28;20433;-81
2022/05/08 03:12:04;;;;;;;;;;;;;;;;;;5071998;28;19923;-81
2022/05/08 03:14:30;;;;;;;;;;;;;;;;;;5072203;28;19930;-81
2022/05/08 03:16:56;;;;;;;;;;;;;;;;;;5071922;28;20395;-81
2022/05/08 03:19:25;;;;;;;;;;;;;;;;;;5071606;28;19908;-81
2022/05/08 03:21:51;;;;;;;;;;;;;;;;;;5072129;28;19909;-80
2022/05/08 03:24:17;;;;;;;;;;;;;;;;;;5072106;28;20322;-80
2022/05/08 03:26:43;;;;;;;;;;;;;;;;;;5053816;28;19909;-80
2022/05/08 03:29:09;;;;;;;;;;;;;;;;;;5071543;28;20523;-80
2022/05/08 03:31:35;;;;;;;;;;;;;;;;;;5053783;28;20284;-80
2022/05/08 03:34:00;;;;;;;;;;;;;;;;;;5054089;28;20372;-80
2022/05/08 03:36:26;;;;;;;;;;;;;;;;;;5072171;28;19916;-81
2022/05/08 03:38:52;;;;;;;;;;;;;;;;;;5053770;28;19950;-80
2022/05/08 03:41:19;;;;;;;;;;;;;;;;;;5072257;28;19908;-80
2022/05/08 03:43:45;;;;;;;;;;;;;;;;;;5054032;28;20694;-80
2022/05/08 03:46:13;;;;;;;;;;;;;;;;;;5054216;28;20011;-80
2022/05/08 03:48:39;;;;;;;;;;;;;;;;;;5056138;28;19909;-80
2022/05/08 03:51:05;;;;;;;;;;;;;;;;;;5076015;28;19908;-80
2022/05/08 03:53:30;;;;;;;;;;;;;;;;;;5075623;28;20330;-80
2022/05/08 03:55:56;;;;;;;;;;;;;;;;;;5057524;28;19908;-80
2022/05/08 03:58:22;;;;;;;;;;;;;;;;;;5075696;28;19908;-80
2022/05/08 04:00:48;;;;;;;;;;;;;;;;;;5075324;28;19965;-80
2022/05/08 04:03:14;;;;;;;;;;;;;;;;;;5057639;28;19912;-80
2022/05/08 04:05:40;;;;;;;;;;;;;;;;;;5075505;28;19946;-80
2022/05/08 04:08:06;;;;;;;;;;;;;;;;;;5075521;28;19908;-80
2022/05/08 04:10:33;;;;;;;;;;;;;;;;;;5074984;28;19920;-80
2022/05/08 04:12:59;;;;;;;;;;;;;;;;;;5075732;28;19912;-80
2022/05/08 04:18:09;;;;;;;;;;;;;;;;;;5075923;28;20386;-80
2022/05/08 04:20:35;;;;;;;;;;;;;;;;;;5057325;28;19913;-80
2022/05/08 04:25:46;;;;;;;;;;;;;;;;;;5075187;28;19919;-81
2022/05/08 04:28:11;;;;;;;;;;;;;;;;;;5075447;28;19908;-80
2022/05/08 04:30:37;;;;;;;;;;;;;;;;;;5074958;28;19909;-80
2022/05/08 04:33:03;;;;;;;;;;;;;;;;;;5075505;28;20327;-80
2022/05/08 04:35:29;;;;;;;;;;;;;;;;;;5075987;28;19908;-79
2022/05/08 04:37:55;;;;;;;;;;;;;;;;;;5057522;28;19908;-79
2022/05/08 04:40:21;;;;;;;;;;;;;;;;;;5075279;28;19909;-79
2022/05/08 04:42:47;;;;;;;;;;;;;;;;;;5075867;28;19908;-79
2022/05/08 04:45:13;;;;;;;;;;;;;;;;;;5075331;28;20283;-81
2022/05/08 04:47:39;;;;;;;;;;;;;;;;;;5075425;28;19916;-80
2022/05/08 04:50:04;;;;;;;;;;;;;;;;;;5075539;28;20377;-80
2022/05/08 04:52:30;;;;;;;;;;;;;;;;;;5057474;28;19924;-81
2022/05/08 04:54:56;;;;;;;;;;;;;;;;;;5057997;28;19912;-80
2022/05/08 04:57:22;;;;;;;;;;;;;;;;;;5077111;28;19999;-80
2022/05/08 04:59:48;;;;;;;;;;;;;;;;;;5074522;28;20305;-80
2022/05/08 05:02:14;;;;;;;;;;;;;;;;;;5057953;28;20368;-81
2022/05/08 05:04:40;;;;;;;;;;;;;;;;;;5058044;28;19940;-81
2022/05/08 05:07:07;;;;;;;;;;;;;;;;;;5059903;28;19931;-81
2022/05/08 05:09:33;;;;;;;;;;;;;;;;;;5058872;28;20291;-82
2022/05/08 05:11:59;;;;;;;;;;;;;;;;;;5059863;28;19939;-82
2022/05/08 05:14:25;;;;;;;;;;;;;;;;;;5079195;28;19915;-82
2022/05/08 05:16:50;;;;;;;;;;;;;;;;;;5060308;28;19963;-82
2022/05/08 05:19:16;;;;;;;;;;;;;;;;;;5060053;28;19918;-82
2022/05/08 05:21:42;;;;;;;;;;;;;;;;;;5060254;28;20344;-82
2022/05/08 05:24:08;;;;;;;;;;;;;;;;;;5061466;28;19915;-82
2022/05/08 05:26:34;;;;;;;;;;;;;;;;;;5061207;28;19915;-83
2022/05/08 05:29:00;;;;;;;;;;;;;;;;;;5060479;28;19931;-84
2022/05/08 05:31:26;;;;;;;;;;;;;;;;;;5060467;28;19912;-84
2022/05/08 05:33:52;;;;;;;;;;;;;;;;;;5059882;28;19913;-84
2022/05/08 05:36:17;;;;;;;;;;;;;;;;;;5061344;28;20465;-84
2022/05/08 05:38:43;;;;;;;;;;;;;;;;;;5077957;28;19983;-83
2022/05/08 05:41:09;;;;;;;;;;;;;;;;;;5077279;28;20265;-83
2022/05/08 05:43:35;;;;;;;;;;;;;;;;;;5059954;28;19959;-83
2022/05/08 05:48:46;;;;;;;;;;;;;;;;;;5078576;28;20315;-83
2022/05/08 05:51:12;;;;;;;;;;;;;;;;;;5061551;28;19908;-83
2022/05/08 05:53:38;;;;;;;;;;;;;;;;;;5079406;28;19916;-83
2022/05/08 05:56:04;;;;;;;;;;;;;;;;;;5062860;28;19921;-83
2022/05/08 05:58:30;;;;;;;;;;;;;;;;;;5061387;28;19912;-83
2022/05/08 06:00:56;;;;;;;;;;;;;;;;;;5061843;28;19920;-82
2022/05/08 06:03:22;;;;;;;;;;;;;;;;;;5061947;28;19908;-82
2022/05/08 06:05:48;;;;;;;;;;;;;;;;;;5061873;28;19913;-83
2022/05/08 06:08:14;;;;;;;;;;;;;;;;;;5061098;28;19908;-84
2022/05/08 06:10:40;;;;;;;;;;;;;;;;;;5062623;28;19909;-84
2022/05/08 06:13:07;;;;;;;;;;;;;;;;;;5062230;28;19924;-83
2022/05/08 06:15:32;;;;;;;;;;;;;;;;;;5066400;28;20312;-83
2022/05/08 06:17:58;;;;;;;;;;;;;;;;;;5065094;28;19915;-84
2022/05/08 06:20:24;;;;;;;;;;;;;;;;;;5081910;28;19912;-84
2022/05/08 06:22:50;;;;;;;;;;;;;;;;;;5059835;28;19920;-83
2022/05/08 06:25:16;;;;;;;;;;;;;;;;;;5061167;28;19909;-83
2022/05/08 06:27:42;;;;;;;;;;;;;;;;;;5060735;28;19909;-83
2022/05/08 06:30:08;;;;;;;;;;;;;;;;;;5058562;28;19912;-83
2022/05/08 06:32:34;;;;;;;;;;;;;;;;;;5055387;28;19923;-82
2022/05/08 06:35:00;;;;;;;;;;;;;;;;;;5057044;28;20002;-82
2022/05/08 06:37:26;;;;;;;;;;;;;;;;;;5056483;28;19931;-82
2022/05/08 06:39:52;;;;;;;;;;;;;;;;;;5056693;28;19999;-83
2022/05/08 06:42:18;;;;;;;;;;;;;;;;;;5056688;28;19913;-83
2022/05/08 06:44:44;;;;;;;;;;;;;;;;;;5073488;28;20265;-82
2022/05/08 06:47:10;;;;;;;;;;;;;;;;;;5055500;28;20417;-82
2022/05/08 06:49:36;;;;;;;;;;;;;;;;;;5055250;28;19909;-82
2022/05/08 06:52:02;;;;;;;;;;;;;;;;;;5073541;28;20030;-82
2022/05/08 06:54:28;;;;;;;;;;;;;;;;;;5055478;28;19962;-82
2022/05/08 06:56:55;;;;;;;;;;;;;;;;;;5074092;28;19908;-81
2022/05/08 07:02:07;;;;;;;;;;;;;;;;;;5074202;28;20197;-81
2022/05/08 07:04:33;;;;;;;;;;;;;;;;;;5074395;28;19908;-78
2022/05/08 07:07:00;;;;;;;;;;;;;;;;;;5055265;28;19916;-81
2022/05/08 07:09:26;;;;;;;;;;;;;;;;;;5073114;28;20007;-81
2022/05/08 07:11:51;;;;;;;;;;;;;;;;;;5072920;28;19955;-81
2022/05/08 07:14:18;;;;;;;;;;;;;;;;;;5056217;28;19908;-83
2022/05/08 07:16:44;;;;;;;;;;;;;;;;;;5057606;28;19920;-80
2022/05/08 07:19:10;;;;;;;;;;;;;;;;;;5057875;28;19909;-80
2022/05/08 07:21:36;;;;;;;;;;;;;;;;;;5075267;28;20379;-81
2022/05/08 07:24:01;;;;;;;;;;;;;;;;;;5060893;28;20387;-80
2022/05/08 07:26:27;;;;;;;;;;;;;;;;;;5080977;28;19909;-81
2022/05/08 07:28:53;;;;;;;;;;;;;;;;;;5079542;28;20284;-81
2022/05/08 07:31:19;;;;;;;;;;;;;;;;;;5078936;28;19956;-80
2022/05/08 07:33:45;;;;;;;;;;;;;;;;;;5079007;28;20454;-82
2022/05/08 07:36:14;;;;;;;;;;;;;;;;;;5077912;28;20003;-85
2022/05/08 07:38:40;;;;;;;;;;;;;;;;;;5061500;28;19909;-83
2022/05/08 07:41:06;;;;;;;;;;;;;;;;;;5063372;28;20277;-82
2022/05/08 07:43:32;;;;;;;;;;;;;;;;;;5060142;28;19945;-82
2022/05/08 07:45:58;;;;;;;;;;;;;;;;;;5061732;28;19915;-82
2022/05/08 07:48:24;;;;;;;;;;;;;;;;;;5078467;28;20369;-83
2022/05/08 07:50:49;;;;;;;;;;;;;;;;;;5079607;28;19908;-83
2022/05/08 07:53:15;;;;;;;;;;;;;;;;;;5061314;28;19913;-81
2022/05/08 07:55:41;;;;;;;;;;;;;;;;;;5056789;28;19959;-79
2022/05/08 07:58:09;;;;;;;;;;;;;;;;;;5063003;28;19964;-83
2022/05/08 08:00:36;;;;;;;;;;;;;;;;;;5054997;28;19979;-82
2022/05/08 08:03:02;;;;;;;;;;;;;;;;;;5075183;28;19916;-84
2022/05/08 08:05:28;;;;;;;;;;;;;;;;;;5060620;28;20439;-84
2022/05/08 08:07:53;;;;;;;;;;;;;;;;;;5073662;28;19954;-83
2022/05/08 08:10:19;;;;;;;;;;;;;;;;;;5055993;28;19920;-84
2022/05/08 08:12:45;;;;;;;;;;;;;;;;;;5056891;28;19923;-83
2022/05/08 08:15:11;;;;;;;;;;;;;;;;;;5043721;28;19913;-83
2022/05/08 08:17:37;;;;;;;;;;;;;;;;;;5064046;28;19935;-81
2022/05/08 08:20:03;;;;;;;;;;;;;;;;;;5074704;28;19919;-82
2022/05/08 08:22:29;;;;;;;;;;;;;;;;;;5058023;28;20401;-83
2022/05/08 08:24:54;;;;;;;;;;;;;;;;;;5052672;28;19920;-83
2022/05/08 08:27:20;;;;;;;;;;;;;;;;;;5061620;28;19916;-80
2022/05/08 08:29:46;;;;;;;;;;;;;;;;;;5077374;28;20298;-82
2022/05/08 08:32:12;;;;;;;;;;;;;;;;;;5075751;28;19917;-81
2022/05/08 08:34:38;;;;;;;;;;;;;;;;;;5044903;28;19909;-80
2022/05/08 08:37:04;;;;;;;;;;;;;;;;;;5058763;28;19939;-80
2022/05/08 08:39:30;;;;;;;;;;;;;;;;;;5057019;28;19916;-81
2022/05/08 08:41:56;;;;;;;;;;;;;;;;;;5063529;28;19916;-82
2022/05/08 08:49:52;;;;;;;;;;;;;;;;;;5071262;28;20403;-81
2022/05/08 08:52:18;;;;;;;;;;;;;;;;;;5052515;28;19917;-79
2022/05/08 08:54:44;;;;;;;;;;;;;;;;;;5060284;28;19923;-81
2022/05/08 08:57:09;;;;;;;;;;;;;;;;;;5060387;28;19908;-79
2022/05/08 08:59:35;;;;;;;;;;;;;;;;;;5078503;28;19958;-79
2022/05/08 09:02:01;;;;;;;;;;;;;;;;;;5069876;28;19939;-80
2022/05/08 09:04:27;;;;;;;;;;;;;;;;;;5071592;28;19917;-79
2022/05/08 09:06:53;;;;;;;;;;;;;;;;;;5074132;28;19951;-79
2022/05/08 09:09:19;;;;;;;;;;;;;;;;;;5057607;28;19912;-79
2022/05/08 09:11:45;;;;;;;;;;;;;;;;;;5075534;28;19912;-81
2022/05/08 09:14:11;;;;;;;;;;;;;;;;;;5055718;28;19916;-80
2022/05/08 09:16:37;;;;;;;;;;;;;;;;;;5055530;28;19917;-81
2022/05/08 09:19:03;;;;;;;;;;;;;;;;;;5072598;28;19919;-81
2022/05/08 09:24:14;;;;;;;;;;;;;;;;;;5073254;28;21627;-81
2022/05/08 09:26:39;;;;;;;;;;;;;;;;;;5058372;28;19913;-80
2022/05/08 09:29:05;;;;;;;;;;;;;;;;;;5048286;28;19908;-79
2022/05/08 09:31:31;;;;;;;;;;;;;;;;;;5058724;28;19920;-83
2022/05/08 09:33:57;;;;;;;;;;;;;;;;;;5068984;28;19919;-80
2022/05/08 09:36:24;;;;;;;;;;;;;;;;;;5057272;28;19912;-82
2022/05/08 09:38:50;;;;;;;;;;;;;;;;;;5074153;28;19909;-82
2022/05/08 09:41:16;;;;;;;;;;;;;;;;;;5065311;28;20004;-81
2022/05/08 09:43:42;;;;;;;;;;;;;;;;;;5063564;28;19948;-81
2022/05/08 09:46:08;;;;;;;;;;;;;;;;;;5074461;28;20439;-82
2022/05/08 09:48:34;;;;;;;;;;;;;;;;;;5058252;28;19916;-80
2022/05/08 09:51:00;;;;;;;;;;;;;;;;;;5056862;28;19915;-79
2022/05/08 09:53:26;;;;;;;;;;;;;;;;;;5045744;28;19917;-80
2022/05/08 09:55:51;;;;;;;;;;;;;;;;;;5075942;28;19919;-81
2022/05/08 09:58:17;;;;;;;;;;;;;;;;;;5057266;28;19908;-80
2022/05/08 10:00:45;;;;;;;;;;;;;;;;;;5071360;28;19913;-81
2022/05/08 10:03:12;;;;;;;;;;;;;;;;;;5055790;28;19978;-82
2022/05/08 10:05:38;;;;;;;;;;;;;;;;;;5057424;28;20358;-83
2022/05/08 10:08:04;;;;;;;;;;;;;;;;;;5040675;28;19905;-82
2022/05/08 10:16:00;;;;;;;;;;;;;;;;;;5058250;28;19924;-78
2022/05/08 10:18:27;;;;;;;;;;;;;;;;;;5057441;28;19913;-78
2022/05/08 10:20:53;;;;;;;;;;;;;;;;;;5056411;28;19963;-78
2022/05/08 10:23:19;;;;;;;;;;;;;;;;;;5039056;28;19912;-79
2022/05/08 10:25:44;;;;;;;;;;;;;;;;;;5039248;28;19916;-79
2022/05/08 10:28:11;;;;;;;;;;;;;;;;;;5039482;28;19920;-79
2022/05/08 10:30:40;;;;;;;;;;;;;;;;;;5043402;28;19910;-78
2022/05/08 10:33:06;;;;;;;;;;;;;;;;;;5068694;28;19923;-80
2022/05/08 10:35:32;;;;;;;;;;;;;;;;;;5084406;28;19970;-81
2022/05/08 10:37:58;;;;;;;;;;;;;;;;;;5069441;28;19913;-84
2022/05/08 10:40:24;;;;;;;;;;;;;;;;;;5063376;28;19912;-82
2022/05/08 10:42:50;;;;;;;;;;;;;;;;;;5062433;28;19999;-82
2022/05/08 10:45:16;;;;;;;;;;;;;;;;;;5075689;28;19952;-82
2022/05/08 10:47:45;;;;;;;;;;;;;;;;;;5073724;28;19916;-83
2022/05/08 10:50:11;;;;;;;;;;;;;;;;;;5054386;28;20534;-82
2022/05/08 10:52:37;;;;;;;;;;;;;;;;;;5061025;28;19922;-79
2022/05/08 10:55:03;;;;;;;;;;;;;;;;;;5068771;28;19909;-80
2022/05/08 10:57:29;;;;;;;;;;;;;;;;;;5068745;28;19909;-80
2022/05/08 10:59:55;;;;;;;;;;;;;;;;;;5084378;28;19909;-81
2022/05/08 11:02:21;;;;;;;;;;;;;;;;;;5080484;28;19909;-79
2022/05/08 11:04:47;;;;;;;;;;;;;;;;;;5074605;28;20366;-80
2022/05/08 11:07:14;;;;;;;;;;;;;;;;;;5081723;28;19913;-80
2022/05/08 11:09:40;;;;;;;;;;;;;;;;;;5072816;28;19908;-79
2022/05/08 11:12:06;;;;;;;;;;;;;;;;;;5066544;28;19922;-79
2022/05/08 11:14:32;;;;;;;;;;;;;;;;;;5062832;28;19924;-80
2022/05/08 11:16:58;;;;;;;;;;;;;;;;;;5057496;28;20283;-79
2022/05/08 11:19:24;;;;;;;;;;;;;;;;;;5075675;28;19920;-79
2022/05/08 11:21:50;;;;;;;;;;;;;;;;;;5068982;28;19913;-79
2022/05/08 11:24:16;;;;;;;;;;;;;;;;;;5065775;28;19912;-80
2022/05/08 11:26:42;;;;;;;;;;;;;;;;;;5100193;28;19961;-78
2022/05/08 11:29:08;;;;;;;;;;;;;;;;;;5083153;28;19912;-83
2022/05/08 11:31:34;;;;;;;;;;;;;;;;;;5097642;28;19951;-84
2022/05/08 11:36:45;;;;;;;;;;;;;;;;;;5068485;28;19923;-81
2022/05/08 11:39:10;;;;;;;;;;;;;;;;;;5053991;28;19920;-82
2022/05/08 11:41:36;;;;;;;;;;;;;;;;;;5073735;28;19971;-80
2022/05/08 11:44:02;;;;;;;;;;;;;;;;;;5074344;28;19921;-80
2022/05/08 11:46:28;;;;;;;;;;;;;;;;;;5074462;28;19916;-80
2022/05/08 11:48:54;;;;;;;;;;;;;;;;;;5070256;28;20004;-79
2022/05/08 11:51:21;;;;;;;;;;;;;;;;;;5059803;28;20376;-80
2022/05/08 11:53:47;;;;;;;;;;;;;;;;;;5070512;28;20033;-80
2022/05/08 11:56:13;;;;;;;;;;;;;;;;;;5069522;28;19923;-81
2022/05/08 11:58:39;;;;;;;;;;;;;;;;;;5073522;28;19934;-83
2022/05/08 12:01:05;;;;;;;;;;;;;;;;;;5082534;28;20375;-82
2022/05/08 12:03:31;;;;;;;;;;;;;;;;;;5079469;28;20384;-81
2022/05/08 12:05:56;;;;;;;;;;;;;;;;;;5079923;28;19912;-80
2022/05/08 12:08:22;;;;;;;;;;;;;;;;;;5079073;28;19919;-81
2022/05/08 12:10:48;;;;;;;;;;;;;;;;;;5075501;28;19916;-78
2022/05/08 12:13:14;;;;;;;;;;;;;;;;;;5068899;28;19927;-78
2022/05/08 12:15:40;;;;;;;;;;;;;;;;;;5070230;28;19923;-77
2022/05/08 12:18:06;;;;;;;;;;;;;;;;;;5059982;28;19916;-78
2022/05/08 12:20:32;;;;;;;;;;;;;;;;;;5050304;28;19922;-79
2022/05/08 12:22:58;;;;;;;;;;;;;;;;;;5069411;28;19912;-78
2022/05/08 12:25:24;;;;;;;;;;;;;;;;;;5074863;28;20386;-77
2022/05/08 12:27:50;;;;;;;;;;;;;;;;;;5075278;28;19912;-79
2022/05/08 12:30:16;;;;;;;;;;;;;;;;;;5055235;28;19997;-79
2022/05/08 12:32:42;;;;;;;;;;;;;;;;;;5073380;28;19913;-78
2022/05/08 12:35:08;;;;;;;;;;;;;;;;;;5074913;28;19985;-78
2022/05/08 12:37:34;;;;;;;;;;;;;;;;;;5058308;28;20435;-78
2022/05/08 12:40:00;;;;;;;;;;;;;;;;;;5068585;28;19939;-78
2022/05/08 12:42:26;;;;;;;;;;;;;;;;;;5053917;28;19912;-78
2022/05/08 12:44:52;;;;;;;;;;;;;;;;;;5069786;28;19920;-78
2022/05/08 12:47:21;;;;;;;;;;;;;;;;;;5073406;28;19934;-79
2022/05/08 12:49:49;;;;;;;;;;;;;;;;;;5055873;28;19920;-78
2022/05/08 12:52:15;;;;;;;;;;;;;;;;;;5070492;28;19920;-78
2022/05/08 12:54:41;;;;;;;;;;;;;;;;;;5066564;28;19917;-77
2022/05/08 12:57:07;;;;;;;;;;;;;;;;;;5051105;28;20415;-79
2022/05/08 12:59:47;;;;;;;;;;;;;;;;;;5076496;28;19913;-78
2022/05/08 13:02:13;;;;;;;;;;;;;;;;;;5075564;28;19991;-78
2022/05/08 13:04:38;;;;;;;;;;;;;;;;;;5058586;28;20376;-78
2022/05/08 13:07:04;;;;;;;;;;;;;;;;;;5071943;28;19936;-78
2022/05/08 13:09:30;;;;;;;;;;;;;;;;;;5071873;28;20442;-78
2022/05/08 13:11:57;;;;;;;;;;;;;;;;;;5071184;28;20429;-78
2022/05/08 13:14:23;;;;;;;;;;;;;;;;;;5072085;28;19912;-78
2022/05/08 13:16:49;;;;;;;;;;;;;;;;;;5071775;28;20352;-78
2022/05/08 13:19:15;;;;;;;;;;;;;;;;;;5071624;28;19920;-77
2022/05/08 13:21:41;;;;;;;;;;;;;;;;;;5071097;28;19959;-78
2022/05/08 13:24:07;;;;;;;;;;;;;;;;;;5072040;28;19912;-78
2022/05/08 13:26:33;;;;;;;;;;;;;;;;;;5072031;28;20031;-78
2022/05/08 13:28:59;;;;;;;;;;;;;;;;;;5053676;28;19985;-78
2022/05/08 13:31:25;;;;;;;;;;;;;;;;;;5072182;28;19959;-79
2022/05/08 13:33:52;;;;;;;;;;;;;;;;;;5062084;28;19916;-78
2022/05/08 13:36:17;;;;;;;;;;;;;;;;;;5080375;28;20368;-78
2022/05/08 13:38:45;;;;;;;;;;;;;;;;;;5061181;28;19909;-78
2022/05/08 13:41:12;;;;;;;;;;;;;;;;;;5078300;28;20395;-78
2022/05/08 13:43:38;;;;;;;;;;;;;;;;;;5078912;28;19909;-79
2022/05/08 13:46:04;;;;;;;;;;;;;;;;;;5061082;28;19915;-78
2022/05/08 13:48:30;;;;;;;;;;;;;;;;;;5075489;28;19970;-78
2022/05/08 13:50:56;;;;;;;;;;;;;;;;;;5057441;28;20339;-78
2022/05/08 13:53:22;;;;;;;;;;;;;;;;;;5056693;28;20003;-78
2022/05/08 13:55:49;;;;;;;;;;;;;;;;;;5056261;28;19955;-78
2022/05/08 13:58:15;;;;;;;;;;;;;;;;;;5074943;28;20381;-78
2022/05/08 14:00:41;;;;;;;;;;;;;;;;;;5075731;28;19959;-78
2022/05/08 14:03:09;;;;;;;;;;;;;;;;;;5076407;28;19957;-78
2022/05/08 14:05:36;;;;;;;;;;;;;;;;;;5077132;28;20001;-78
2022/05/08 14:08:03;;;;;;;;;;;;;;;;;;5079037;28;19917;-78
2022/05/08 14:10:29;;;;;;;;;;;;;;;;;;5078508;28;20319;-78
2022/05/08 14:12:54;;;;;;;;;;;;;;;;;;5077438;28;19925;-79
2022/05/08 14:15:21;;;;;;;;;;;;;;;;;;5057994;28;19966;-79
2022/05/08 14:17:47;;;;;;;;;;;;;;;;;;5059967;28;20399;-80
2022/05/08 14:20:13;;;;;;;;;;;;;;;;;;5078299;28;19908;-80
2022/05/08 14:22:41;;;;;;;;;;;;;;;;;;5080300;28;19916;-80
2022/05/08 14:25:06;;;;;;;;;;;;;;;;;;5057912;28;19912;-79
2022/05/08 14:27:33;;;;;;;;;;;;;;;;;;5056000;28;19923;-79
2022/05/08 14:29:59;;;;;;;;;;;;;;;;;;5055780;28;19912;-78
2022/05/08 14:37:54;;;;;;;;;;;;;;;;;;5057324;28;19911;-78
2022/05/08 14:40:20;;;;;;;;;;;;;;;;;;5055794;28;20272;-79
2022/05/08 14:42:46;;;;;;;;;;;;;;;;;;5057264;28;19912;-79
2022/05/08 14:45:12;;;;;;;;;;;;;;;;;;5057534;28;19959;-79
2022/05/08 14:47:38;;;;;;;;;;;;;;;;;;5056735;28;19976;-79
2022/05/08 14:50:04;;;;;;;;;;;;;;;;;;5038790;28;20428;-79
2022/05/08 14:52:31;;;;;;;;;;;;;;;;;;5039943;28;19971;-78
2022/05/08 14:54:57;;;;;;;;;;;;;;;;;;5057806;28;19913;-79
2022/05/08 14:57:23;;;;;;;;;;;;;;;;;;5056502;28;19912;-79
2022/05/08 14:59:49;;;;;;;;;;;;;;;;;;5041204;28;20042;-80
2022/05/08 15:02:14;;;;;;;;;;;;;;;;;;5060152;28;19956;-79
2022/05/08 15:04:40;;;;;;;;;;;;;;;;;;5052335;28;19917;-79
2022/05/08 15:07:06;;;;;;;;;;;;;;;;;;5039798;28;20346;-80
2022/05/08 15:09:32;;;;;;;;;;;;;;;;;;5041680;28;19921;-79
2022/05/08 15:11:58;;;;;;;;;;;;;;;;;;5058270;28;19928;-79
2022/05/08 15:14:25;;;;;;;;;;;;;;;;;;5056801;28;19913;-79
2022/05/08 15:16:51;;;;;;;;;;;;;;;;;;5056714;28;19921;-79
2022/05/08 15:19:17;;;;;;;;;;;;;;;;;;5054618;28;19939;-78
2022/05/08 15:21:43;;;;;;;;;;;;;;;;;;5050080;28;19916;-76
2022/05/08 15:24:09;;;;;;;;;;;;;;;;;;5051368;28;20261;-77
2022/05/08 15:26:37;;;;;;;;;;;;;;;;;;5050774;28;20007;-77
2022/05/08 15:29:03;;;;;;;;;;;;;;;;;;5033655;28;19909;-77
2022/05/08 15:31:29;;;;;;;;;;;;;;;;;;5033033;28;20062;-77
2022/05/08 15:33:56;;;;;;;;;;;;;;;;;;5049961;28;19913;-78
2022/05/08 15:36:22;;;;;;;;;;;;;;;;;;5036714;28;19909;-78
2022/05/08 15:38:47;;;;;;;;;;;;;;;;;;5035677;28;20258;-78
2022/05/08 15:41:13;;;;;;;;;;;;;;;;;;5049992;28;19916;-77
2022/05/08 15:43:39;;;;;;;;;;;;;;;;;;5052971;28;19912;-78
2022/05/08 15:46:05;;;;;;;;;;;;;;;;;;5056769;28;19980;-78
2022/05/08 15:48:31;;;;;;;;;;;;;;;;;;5056706;28;19966;-78
2022/05/08 15:50:57;;;;;;;;;;;;;;;;;;5053568;28;20031;-77
2022/05/08 15:53:25;;;;;;;;;;;;;;;;;;5052899;28;20399;-77
2022/05/08 15:55:51;;;;;;;;;;;;;;;;;;5053335;28;20213;-77
2022/05/08 15:58:17;;;;;;;;;;;;;;;;;;5042890;28;19930;-78
2022/05/08 16:00:43;;;;;;;;;;;;;;;;;;5064661;28;19912;-78
2022/05/08 16:03:09;;;;;;;;;;;;;;;;;;5077021;28;20343;-79
2022/05/08 16:05:35;;;;;;;;;;;;;;;;;;5075055;28;19923;-78
2022/05/08 16:08:02;;;;;;;;;;;;;;;;;;5077116;28;19916;-78
2022/05/08 16:10:28;;;;;;;;;;;;;;;;;;5090713;28;19916;-79
2022/05/08 16:23:53;;;;;;;;;;;;;;;;;;5068893;28;19927;-78
2022/05/08 16:26:21;;;;;;;;;;;;;;;;;;5065293;28;19912;-78
2022/05/08 16:28:47;;;;;;;;;;;;;;;;;;5067098;28;20253;-79
2022/05/08 16:31:13;;;;;;;;;;;;;;;;;;5065439;28;19913;-78
2022/05/08 16:33:39;;;;;;;;;;;;;;;;;;5064102;28;20288;-78
2022/05/08 16:36:05;;;;;;;;;;;;;;;;;;5061697;28;19920;-78
2022/05/08 16:38:32;;;;;;;;;;;;;;;;;;5042408;28;20003;-77
2022/05/08 16:40:58;;;;;;;;;;;;;;;;;;5068670;28;19917;-78
2022/05/08 16:43:25;;;;;;;;;;;;;;;;;;5049428;28;19967;-79
2022/05/08 16:45:51;;;;;;;;;;;;;;;;;;5066874;28;20240;-80
2022/05/08 16:48:17;;;;;;;;;;;;;;;;;;5054025;28;19979;-80
2022/05/08 16:50:44;;;;;;;;;;;;;;;;;;5054060;28;20269;-80
2022/05/08 16:53:10;;;;;;;;;;;;;;;;;;5055905;28;19974;-80
2022/05/08 16:55:36;;;;;;;;;;;;;;;;;;5069859;28;19917;-78
2022/05/08 16:58:02;;;;;;;;;;;;;;;;;;5053905;28;19912;-79
2022/05/08 17:00:28;;;;;;;;;;;;;;;;;;5051344;28;19913;-79
2022/05/08 17:02:54;;;;;;;;;;;;;;;;;;5048386;28;19958;-79
2022/05/08 17:05:20;;;;;;;;;;;;;;;;;;5043197;28;20364;-78
2022/05/08 17:07:47;;;;;;;;;;;;;;;;;;5049767;28;20372;-80
2022/05/08 17:10:15;;;;;;;;;;;;;;;;;;5051424;28;19912;-79
2022/05/08 17:12:41;;;;;;;;;;;;;;;;;;5072455;28;19923;-79
2022/05/08 17:15:07;;;;;;;;;;;;;;;;;;5064190;28;19920;-78
2022/05/08 17:17:33;;;;;;;;;;;;;;;;;;5054155;28;19912;-78
2022/05/08 17:19:59;;;;;;;;;;;;;;;;;;5075884;28;20003;-80
2022/05/08 17:22:27;;;;;;;;;;;;;;;;;;5075604;28;19912;-81
2022/05/08 17:24:54;;;;;;;;;;;;;;;;;;5058466;28;19944;-78